Time;durP1;ratioP1;P1;durP2;ratioP2;P2;SDS_P1;SDS_P2;PMS_P1;PMS_P2;Temp;Humidity;BMP_temperature;BMP_pressure;BME280_temperature;BME280_humidity;BME280_pressure;Samples;Min_cycle;Max_cycle;Signal;HPM_P1;HPM_P2
2023/01/16 00:01:50;;;;;;;2.37;1.40;;;4.80;99.90;;;;;;5033230;28;20471;-71
2023/01/16 00:04:15;;;;;;;0.87;0.87;;;4.90;99.90;;;;;;5027240;28;20461;-72
2023/01/16 00:06:41;;;;;;;1.17;0.90;;;4.90;99.90;;;;;;5030703;28;20458;-72
2023/01/16 00:09:06;;;;;;;1.43;0.80;;;5.00;99.90;;;;;;5034109;28;20203;-72
2023/01/16 00:11:32;;;;;;;2.03;1.37;;;5.00;99.90;;;;;;5034027;28;20168;-74
2023/01/16 00:13:59;;;;;;;1.90;1.20;;;5.10;99.90;;;;;;5033445;28;20214;-72
2023/01/16 00:16:25;;;;;;;1.17;1.00;;;5.20;99.90;;;;;;5033430;28;20537;-72
2023/01/16 00:18:50;;;;;;;4.67;1.67;;;5.20;99.90;;;;;;5027278;28;20431;-72
2023/01/16 00:21:17;;;;;;;1.30;1.20;;;5.20;99.90;;;;;;5015662;28;20937;-72
2023/01/16 00:23:42;;;;;;;1.10;1.00;;;5.20;99.90;;;;;;5015314;28;20227;-71
2023/01/16 00:26:09;;;;;;;1.30;1.10;;;5.20;99.90;;;;;;5028127;28;20532;-72
2023/01/16 00:28:37;;;;;;;1.00;0.90;;;5.30;99.90;;;;;;5030587;28;20171;-71
2023/01/16 00:31:04;;;;;;;2.50;1.63;;;5.30;99.90;;;;;;5033168;28;20497;-73
2023/01/16 00:33:30;;;;;;;3.17;1.10;;;5.30;99.90;;;;;;5031787;28;20428;-73
2023/01/16 00:35:56;;;;;;;1.00;0.90;;;5.40;99.90;;;;;;5032798;28;20442;-72
2023/01/16 00:38:21;;;;;;;1.20;0.90;;;5.40;99.90;;;;;;5020949;28;20449;-73
2023/01/16 00:40:47;;;;;;;1.13;0.93;;;5.40;99.90;;;;;;5032864;28;20696;-72
2023/01/16 00:43:12;;;;;;;0.90;0.83;;;5.40;99.90;;;;;;5028074;28;20202;-74
2023/01/16 00:45:39;;;;;;;2.13;1.53;;;5.40;99.90;;;;;;5032832;28;20614;-72
2023/01/16 00:48:05;;;;;;;5.13;1.20;;;5.40;99.90;;;;;;5032866;28;20330;-72
2023/01/16 00:50:31;;;;;;;3.10;1.37;;;5.40;99.90;;;;;;5030063;28;20452;-72
2023/01/16 00:52:56;;;;;;;1.30;1.20;;;5.40;99.90;;;;;;5026785;28;20462;-72
2023/01/16 00:55:22;;;;;;;1.23;1.13;;;5.40;99.90;;;;;;5028561;28;20180;-71
2023/01/16 00:57:48;;;;;;;2.50;1.20;;;5.40;99.90;;;;;;5032503;28;20213;-72
2023/01/16 01:00:16;;;;;;;0.93;0.83;;;5.40;99.90;;;;;;5032766;28;20453;-73
2023/01/16 01:02:41;;;;;;;4.43;1.27;;;5.40;99.90;;;;;;5032654;28;20863;-73
2023/01/16 01:05:07;;;;;;;1.10;1.00;;;5.40;99.90;;;;;;5032117;28;20513;-72
2023/01/16 01:07:33;;;;;;;1.23;0.93;;;5.40;99.90;;;;;;5032448;28;20187;-72
2023/01/16 01:09:58;;;;;;;0.80;0.80;;;5.40;99.90;;;;;;5025718;28;20431;-72
2023/01/16 01:12:24;;;;;;;0.73;0.73;;;5.40;99.90;;;;;;5029899;28;20163;-71
2023/01/16 01:14:49;;;;;;;0.93;0.83;;;5.40;99.90;;;;;;5031893;28;20338;-72
2023/01/16 01:17:15;;;;;;;1.13;0.93;;;5.40;99.90;;;;;;5032220;28;20192;-72
2023/01/16 01:19:41;;;;;;;2.30;1.13;;;5.30;99.90;;;;;;5028372;28;20265;-72
2023/01/16 01:22:06;;;;;;;2.70;1.10;;;5.30;99.90;;;;;;5032292;28;20172;-72
2023/01/16 01:24:32;;;;;;;1.97;1.10;;;5.30;99.90;;;;;;5032096;28;20669;-71
2023/01/16 01:26:58;;;;;;;0.97;0.90;;;5.20;99.90;;;;;;5032244;28;20712;-71
2023/01/16 01:29:23;;;;;;;1.37;0.80;;;5.20;99.90;;;;;;5031980;28;20493;-73
2023/01/16 01:31:49;;;;;;;1.37;1.10;;;5.10;99.90;;;;;;5030706;28;20630;-72
2023/01/16 01:34:15;;;;;;;3.50;1.07;;;5.10;99.90;;;;;;5032195;28;20175;-72
2023/01/16 01:36:41;;;;;;;3.10;1.73;;;5.00;99.90;;;;;;5028075;28;20285;-73
2023/01/16 01:39:07;;;;;;;1.50;1.03;;;4.90;99.90;;;;;;5026046;28;20456;-72
2023/01/16 01:41:33;;;;;;;2.10;1.10;;;4.80;99.90;;;;;;5032125;28;20211;-71
2023/01/16 01:43:58;;;;;;;2.63;1.23;;;4.70;99.90;;;;;;5031555;28;20290;-73
2023/01/16 01:46:44;;;;;;;1.10;1.00;;;4.60;99.90;;;;;;5029522;28;20199;-72
2023/01/16 01:49:23;;;;;;;2.40;1.40;;;4.60;99.90;;;;;;5026236;28;20174;-71
2023/01/16 01:51:49;;;;;;;1.20;1.00;;;4.50;99.90;;;;;;5031626;28;20441;-72
2023/01/16 01:54:21;;;;;;;1.23;0.90;;;4.50;99.90;;;;;;5031172;28;20500;-72
2023/01/16 01:56:55;;;;;;;2.00;0.97;;;4.50;99.90;;;;;;5030266;28;20559;-71
2023/01/16 01:59:26;;;;;;;1.80;1.37;;;4.50;99.90;;;;;;5031432;28;20496;-71
2023/01/16 02:01:54;;;;;;;1.20;1.10;;;4.50;99.90;;;;;;5031493;28;20480;-73
2023/01/16 02:04:25;;;;;;;2.53;1.17;;;4.60;99.90;;;;;;5024272;28;20839;-71
2023/01/16 02:06:54;;;;;;;1.10;1.00;;;4.60;99.90;;;;;;5030781;28;20441;-71
2023/01/16 02:09:22;;;;;;;1.13;1.03;;;4.60;99.90;;;;;;5031218;28;20406;-72
2023/01/16 02:11:55;;;;;;;2.60;1.07;;;4.70;99.90;;;;;;5029194;28;20517;-72
2023/01/16 02:14:23;;;;;;;1.30;0.97;;;4.70;99.90;;;;;;5024952;28;20480;-73
2023/01/16 02:20:10;;;;;;;1.10;1.00;;;4.70;99.90;;;;;;5027569;28;20417;-72
2023/01/16 02:22:54;;;;;;;0.70;0.70;;;4.70;99.90;;;;;;5028640;28;20434;-71
2023/01/16 02:25:36;;;;;;;4.93;1.10;;;4.80;99.90;;;;;;5024801;28;20464;-72
2023/01/16 02:28:15;;;;;;;2.20;1.00;;;4.70;99.90;;;;;;5023776;28;20407;-72
2023/01/16 02:31:08;;;;;;;2.03;0.90;;;4.80;99.90;;;;;;5029208;28;20410;-72
2023/01/16 02:33:54;;;;;;;4.10;1.20;;;4.70;99.90;;;;;;5022886;28;20708;-73
2023/01/16 02:36:22;;;;;;;1.97;1.07;;;4.80;99.90;;;;;;5026154;28;20904;-72
2023/01/16 02:39:05;;;;;;;1.03;0.80;;;4.80;99.90;;;;;;5030515;28;20410;-72
2023/01/16 02:41:42;;;;;;;1.37;1.00;;;4.80;99.90;;;;;;5030971;28;20430;-72
2023/01/16 02:44:41;;;;;;;0.80;0.80;;;4.80;99.90;;;;;;5030617;28;20461;-72
2023/01/16 02:47:28;;;;;;;3.77;1.00;;;4.80;99.90;;;;;;4998003;28;20453;-72
2023/01/16 02:49:57;;;;;;;0.80;0.80;;;4.70;99.90;;;;;;5022725;28;20923;-72
2023/01/16 02:52:28;;;;;;;1.10;1.00;;;4.70;99.90;;;;;;5029877;28;20430;-73
2023/01/16 02:55:03;;;;;;;1.03;0.90;;;4.80;99.90;;;;;;5030512;28;20403;-71
2023/01/16 02:57:40;;;;;;;1.33;1.10;;;4.80;99.90;;;;;;5032500;28;20424;-74
2023/01/16 03:00:08;;;;;;;3.23;0.97;;;4.80;99.90;;;;;;5026656;28;20414;-72
2023/01/16 03:02:33;;;;;;;1.90;0.80;;;4.80;99.90;;;;;;5034961;28;20891;-72
2023/01/16 03:04:59;;;;;;;0.87;0.87;;;4.80;99.90;;;;;;5034455;28;20849;-73
2023/01/16 03:07:30;;;;;;;2.73;1.40;;;4.80;99.90;;;;;;5031895;28;20488;-72
2023/01/16 03:10:17;;;;;;;3.30;3.00;;;4.80;99.90;;;;;;5026832;28;20254;-72
2023/01/16 03:13:06;;;;;;;6.70;6.07;;;4.80;99.90;;;;;;5034446;28;20544;-72
2023/01/16 03:16:02;;;;;;;7.83;7.03;;;4.80;99.90;;;;;;5027506;28;20427;-72
2023/01/16 03:18:33;;;;;;;11.40;9.57;;;4.80;99.90;;;;;;5031135;28;20406;-73
2023/01/16 03:21:23;;;;;;;9.90;9.00;;;4.70;99.90;;;;;;5027859;28;20406;-73
2023/01/16 03:23:54;;;;;;;9.60;8.70;;;4.60;99.90;;;;;;5033629;28;20465;-72
2023/01/16 03:26:23;;;;;;;9.77;6.63;;;4.50;99.90;;;;;;5034229;28;20469;-72
2023/01/16 03:29:09;;;;;;;7.50;5.73;;;4.40;99.90;;;;;;5034316;28;20417;-72
2023/01/16 03:31:50;;;;;;;3.70;3.40;;;4.40;99.90;;;;;;5034320;28;20413;-71
2023/01/16 03:34:24;;;;;;;3.23;2.93;;;4.30;99.90;;;;;;5032872;28;20440;-72
2023/01/16 03:37:04;;;;;;;3.70;2.80;;;4.30;99.90;;;;;;5033636;28;20506;-71
2023/01/16 03:39:36;;;;;;;4.23;2.93;;;4.30;99.90;;;;;;5033967;28;20413;-72
2023/01/16 03:42:10;;;;;;;2.80;1.87;;;4.40;99.90;;;;;;5034053;28;20406;-72
2023/01/16 03:44:42;;;;;;;1.43;1.33;;;4.40;99.90;;;;;;5033996;28;20952;-72
2023/01/16 03:47:15;;;;;;;1.53;1.20;;;4.30;99.90;;;;;;5034296;28;20422;-72
2023/01/16 03:49:45;;;;;;;2.50;1.50;;;4.30;99.90;;;;;;5032582;28;20767;-72
2023/01/16 03:52:14;;;;;;;1.67;1.30;;;4.30;99.90;;;;;;5033939;28;20413;-72
2023/01/16 03:54:52;;;;;;;1.33;1.23;;;4.30;99.90;;;;;;5033894;28;20449;-71
2023/01/16 03:57:26;;;;;;;2.10;1.10;;;4.20;99.90;;;;;;5033903;28;20777;-71
2023/01/16 03:59:52;;;;;;;4.40;1.27;;;4.20;99.90;;;;;;5033788;28;20422;-72
2023/01/16 04:02:37;;;;;;;1.30;1.20;;;4.20;99.90;;;;;;5033882;28;20423;-71
2023/01/16 04:05:07;;;;;;;2.33;1.23;;;4.20;99.90;;;;;;5026589;28;20406;-72
2023/01/16 04:07:46;;;;;;;1.40;1.03;;;4.20;99.90;;;;;;5025980;28;20449;-73
2023/01/16 04:10:34;;;;;;;4.30;1.50;;;4.20;99.90;;;;;;5033753;28;20403;-71
2023/01/16 04:13:13;;;;;;;2.90;1.90;;;4.20;99.90;;;;;;5033488;28;20410;-72
2023/01/16 04:15:44;;;;;;;1.50;0.97;;;4.30;99.90;;;;;;5033565;28;20406;-72
2023/01/16 04:18:10;;;;;;;0.90;0.80;;;4.20;99.90;;;;;;5028113;28;20394;-72
2023/01/16 04:20:37;;;;;;;1.10;1.10;;;4.20;99.90;;;;;;5034758;28;20421;-70
2023/01/16 04:23:02;;;;;;;2.40;1.20;;;4.20;99.90;;;;;;5029450;28;20195;-72
2023/01/16 04:25:28;;;;;;;1.30;1.10;;;4.10;99.90;;;;;;5033603;28;20406;-72
2023/01/16 04:27:54;;;;;;;1.00;0.90;;;4.00;99.90;;;;;;5033306;28;20222;-71
2023/01/16 04:30:19;;;;;;;1.20;1.10;;;3.90;99.90;;;;;;5033109;28;20176;-71
2023/01/16 04:32:45;;;;;;;1.77;0.87;;;3.90;99.90;;;;;;5033144;28;20160;-71
2023/01/16 04:35:11;;;;;;;1.10;1.00;;;3.90;99.90;;;;;;5033285;28;20345;-72
2023/01/16 04:37:37;;;;;;;2.03;1.07;;;3.90;99.90;;;;;;5025979;28;20208;-71
2023/01/16 04:40:03;;;;;;;1.77;1.40;;;3.80;99.90;;;;;;5033031;28;20567;-71
2023/01/16 04:42:29;;;;;;;1.27;1.03;;;3.80;99.90;;;;;;5033028;28;20164;-72
2023/01/16 04:44:54;;;;;;;1.90;1.33;;;3.70;99.90;;;;;;5032696;28;20838;-72
2023/01/16 04:47:20;;;;;;;1.30;0.97;;;3.70;99.90;;;;;;5032945;28;20191;-72
2023/01/16 04:49:45;;;;;;;2.73;1.00;;;3.70;99.90;;;;;;5032686;28;20199;-71
2023/01/16 04:52:12;;;;;;;1.93;1.20;;;3.70;99.90;;;;;;5033009;28;20172;-72
2023/01/16 04:54:38;;;;;;;4.23;1.33;;;3.60;99.90;;;;;;5031451;28;20172;-72
2023/01/16 04:57:05;;;;;;;1.37;1.10;;;3.60;99.90;;;;;;5032423;28;20437;-71
2023/01/16 04:59:30;;;;;;;1.03;1.00;;;3.50;99.90;;;;;;5032558;28;20176;-72
2023/01/16 05:01:56;;;;;;;1.57;1.47;;;3.50;99.90;;;;;;5032625;28;20415;-71
2023/01/16 05:04:21;;;;;;;3.93;1.60;;;3.50;99.90;;;;;;5032764;28;20199;-72
2023/01/16 05:06:47;;;;;;;3.20;1.73;;;3.50;99.90;;;;;;5028983;28;20256;-71
2023/01/16 05:09:13;;;;;;;1.20;1.17;;;3.50;99.90;;;;;;5028990;28;20233;-73
2023/01/16 05:11:39;;;;;;;1.10;1.00;;;3.50;99.90;;;;;;5030979;28;20877;-72
2023/01/16 05:14:07;;;;;;;2.80;1.20;;;3.50;99.90;;;;;;5032928;28;20175;-71
2023/01/16 05:16:36;;;;;;;1.50;1.27;;;3.50;99.90;;;;;;5026550;28;20576;-71
2023/01/16 05:19:02;;;;;;;1.70;1.30;;;3.60;99.90;;;;;;5031958;28;21003;-73
2023/01/16 05:21:28;;;;;;;3.63;1.70;;;3.60;99.90;;;;;;5031693;28;20402;-71
2023/01/16 05:23:53;;;;;;;1.30;1.20;;;3.60;99.90;;;;;;5032198;28;20533;-71
2023/01/16 05:26:19;;;;;;;3.53;1.73;;;3.60;99.90;;;;;;5032090;28;20179;-73
2023/01/16 05:28:45;;;;;;;1.70;1.33;;;3.60;99.90;;;;;;5031934;28;20246;-72
2023/01/16 05:31:10;;;;;;;1.27;1.10;;;3.60;99.90;;;;;;5032156;28;20202;-72
2023/01/16 05:33:36;;;;;;;1.37;1.27;;;3.70;99.90;;;;;;5032111;28;20199;-71
2023/01/16 05:36:02;;;;;;;1.27;1.10;;;3.70;99.90;;;;;;5030915;28;20458;-72
2023/01/16 05:38:28;;;;;;;1.67;1.57;;;3.70;99.90;;;;;;5032018;28;20175;-71
2023/01/16 05:40:54;;;;;;;1.43;1.10;;;3.70;99.90;;;;;;5030209;28;20406;-72
2023/01/16 05:43:19;;;;;;;1.40;1.30;;;3.80;99.90;;;;;;5031784;28;20457;-72
2023/01/16 05:45:45;;;;;;;1.40;1.10;;;3.80;99.90;;;;;;5031682;28;20171;-71
2023/01/16 05:48:10;;;;;;;1.30;1.10;;;3.80;99.90;;;;;;5031705;28;20234;-71
2023/01/16 05:50:36;;;;;;;6.40;2.10;;;3.90;99.90;;;;;;5031517;28;20643;-72
2023/01/16 05:53:02;;;;;;;1.70;1.13;;;3.90;99.90;;;;;;5028330;28;20179;-72
2023/01/16 05:55:27;;;;;;;2.33;1.30;;;4.00;99.90;;;;;;5017524;28;20237;-73
2023/01/16 05:57:53;;;;;;;3.93;1.40;;;4.00;99.90;;;;;;5031452;28;20196;-72
2023/01/16 06:00:19;;;;;;;1.87;1.47;;;4.00;99.90;;;;;;5031794;28;20281;-72
2023/01/16 06:02:47;;;;;;;2.50;1.40;;;4.10;99.90;;;;;;5032033;28;20286;-70
2023/01/16 06:05:13;;;;;;;1.50;1.40;;;4.00;99.90;;;;;;5031769;28;20174;-71
2023/01/16 06:07:41;;;;;;;1.40;1.10;;;4.10;99.90;;;;;;5031254;28;20426;-71
2023/01/16 06:10:08;;;;;;;4.80;1.40;;;4.00;99.90;;;;;;5012201;28;20885;-72
2023/01/16 06:12:33;;;;;;;3.27;1.30;;;4.00;99.90;;;;;;5031290;28;20568;-72
2023/01/16 06:14:59;;;;;;;2.60;1.37;;;4.00;99.90;;;;;;5031604;28;20414;-72
2023/01/16 06:17:25;;;;;;;1.53;1.40;;;4.00;99.90;;;;;;5027597;28;20192;-72
2023/01/16 06:19:50;;;;;;;1.30;1.10;;;4.00;99.90;;;;;;5031124;28;20222;-72
2023/01/16 06:22:16;;;;;;;4.60;1.57;;;4.00;99.90;;;;;;5053381;23;20187;-69
2023/01/16 06:24:42;;;;;;;1.80;1.43;;;4.00;99.90;;;;;;5030191;28;20229;-69
2023/01/16 06:27:08;;;;;;;1.70;1.17;;;3.90;99.90;;;;;;5030899;28;20226;-69
2023/01/16 06:29:33;;;;;;;2.13;1.83;;;4.00;99.90;;;;;;5030926;28;20172;-69
2023/01/16 06:31:59;;;;;;;2.60;1.83;;;4.00;99.90;;;;;;5030839;28;20243;-69
2023/01/16 06:34:25;;;;;;;2.20;1.40;;;4.00;99.90;;;;;;5011884;28;20172;-69
2023/01/16 06:36:51;;;;;;;3.33;1.40;;;4.00;99.90;;;;;;5030711;28;20679;-69
2023/01/16 06:39:17;;;;;;;3.80;3.37;;;4.00;99.90;;;;;;5030471;28;20438;-69
2023/01/16 06:41:43;;;;;;;1.57;1.47;;;4.00;99.90;;;;;;5030677;28;20493;-69
2023/01/16 06:44:09;;;;;;;1.77;1.53;;;4.00;99.90;;;;;;5028513;28;20195;-69
2023/01/16 06:46:35;;;;;;;2.20;1.47;;;4.00;99.90;;;;;;5030913;28;20778;-69
2023/01/16 06:49:00;;;;;;;1.37;1.27;;;4.00;99.90;;;;;;5030653;28;20399;-69
2023/01/16 06:51:26;;;;;;;1.30;1.17;;;3.90;99.90;;;;;;5029667;28;20274;-69
2023/01/16 06:53:51;;;;;;;2.73;1.90;;;3.90;99.90;;;;;;5030562;28;20187;-69
2023/01/16 06:56:17;;;;;;;3.30;1.30;;;3.90;99.90;;;;;;5030626;28;20191;-69
2023/01/16 06:58:43;;;;;;;4.17;1.50;;;4.00;99.90;;;;;;5030393;28;20199;-69
2023/01/16 07:01:09;;;;;;;1.60;1.30;;;4.00;99.90;;;;;;5030583;28;20258;-69
2023/01/16 07:03:34;;;;;;;1.40;1.17;;;4.00;99.90;;;;;;5030277;28;20458;-69
2023/01/16 07:06:00;;;;;;;1.73;1.30;;;4.00;99.90;;;;;;5030527;28;20254;-69
2023/01/16 07:08:26;;;;;;;3.10;1.77;;;4.00;99.90;;;;;;5024309;28;20172;-69
2023/01/16 07:10:51;;;;;;;1.47;1.10;;;4.00;99.90;;;;;;5030297;28;20164;-68
2023/01/16 07:13:18;;;;;;;1.70;1.10;;;4.00;99.90;;;;;;5030624;28;20549;-68
2023/01/16 07:24:23;;;;;;;2.03;1.60;;;4.10;99.90;;;;;;4931889;29;20517;-68
2023/01/16 07:26:53;;;;;;;1.53;1.43;;;4.10;99.90;;;;;;4997955;28;20537;-70
2023/01/16 07:29:19;;;;;;;1.60;1.40;;;4.10;99.90;;;;;;5029832;28;20478;-65
2023/01/16 07:31:44;;;;;;;1.87;1.20;;;4.10;99.90;;;;;;5030519;28;20502;-68
2023/01/16 07:34:10;;;;;;;3.57;1.63;;;4.10;99.90;;;;;;5030146;28;20223;-66
2023/01/16 07:36:36;;;;;;;4.17;1.47;;;4.10;99.90;;;;;;5030334;28;20202;-66
2023/01/16 07:39:01;;;;;;;1.53;1.20;;;4.10;99.90;;;;;;5028975;28;20182;-66
2023/01/16 07:41:27;;;;;;;2.17;1.30;;;4.10;99.90;;;;;;5044767;28;20206;-65
2023/01/16 07:43:52;;;;;;;1.97;1.50;;;4.00;99.90;;;;;;5037300;28;20195;-65
2023/01/16 07:46:18;;;;;;;2.93;1.20;;;4.00;99.90;;;;;;5033978;28;20236;-65
2023/01/16 07:48:43;;;;;;;3.23;1.60;;;4.00;99.90;;;;;;5036193;28;20245;-65
2023/01/16 07:51:09;;;;;;;1.47;1.20;;;4.10;99.90;;;;;;5033087;28;20548;-65
2023/01/16 07:53:34;;;;;;;3.70;1.80;;;4.00;99.90;;;;;;5033535;28;20191;-65
2023/01/16 07:56:01;;;;;;;1.50;1.20;;;3.90;99.90;;;;;;5033328;28;20195;-65
2023/01/16 07:58:29;;;;;;;1.97;1.40;;;4.10;99.90;;;;;;5033604;28;20183;-64
2023/01/16 08:00:56;;;;;;;1.63;1.53;;;4.10;99.90;;;;;;5023564;28;20557;-64
2023/01/16 08:03:23;;;;;;;3.07;2.13;;;4.10;99.90;;;;;;5032081;28;20770;-65
2023/01/16 08:05:51;;;;;;;2.40;1.50;;;4.10;99.90;;;;;;5028764;28;20526;-65
2023/01/16 08:08:18;;;;;;;3.73;1.70;;;4.00;99.90;;;;;;5033089;28;20421;-65
2023/01/16 08:10:43;;;;;;;1.50;1.40;;;3.90;99.90;;;;;;5033332;28;20444;-66
2023/01/16 08:13:09;;;;;;;1.90;1.20;;;4.00;99.90;;;;;;5032936;28;20484;-65
2023/01/16 08:15:35;;;;;;;10.43;1.70;;;4.00;99.90;;;;;;5033204;28;20243;-65
2023/01/16 08:18:00;;;;;;;4.30;1.43;;;4.10;99.90;;;;;;5033363;28;20250;-66
2023/01/16 08:20:26;;;;;;;4.00;1.90;;;4.10;99.90;;;;;;5033012;28;20641;-66
2023/01/16 08:22:52;;;;;;;1.40;1.17;;;4.20;99.90;;;;;;5029279;28;20226;-67
2023/01/16 08:25:20;;;;;;;2.10;1.90;;;4.20;99.90;;;;;;5032787;28;20175;-67
2023/01/16 08:27:46;;;;;;;4.43;1.43;;;4.30;99.90;;;;;;5032910;28;20410;-66
2023/01/16 08:30:14;;;;;;;3.43;1.30;;;4.30;99.90;;;;;;5032704;28;20407;-67
2023/01/16 08:32:39;;;;;;;1.83;1.10;;;4.40;99.90;;;;;;5032535;28;20430;-66
2023/01/16 08:35:06;;;;;;;1.83;1.30;;;4.50;99.90;;;;;;5032651;28;20410;-67
2023/01/16 08:37:32;;;;;;;1.27;1.17;;;4.60;99.90;;;;;;5029884;28;20168;-66
2023/01/16 08:39:58;;;;;;;2.80;1.27;;;4.60;99.90;;;;;;5032487;28;20892;-66
2023/01/16 08:53:23;;;;;;;2.70;1.27;;;4.70;99.90;;;;;;5025525;28;20508;-66
2023/01/16 08:55:49;;;;;;;3.07;1.60;;;4.70;99.90;;;;;;5031144;28;20900;-66
2023/01/16 08:58:15;;;;;;;1.30;1.20;;;4.80;99.90;;;;;;5032245;28;20450;-66
2023/01/16 09:00:41;;;;;;;2.00;1.47;;;5.20;99.90;;;;;;5032168;28;20178;-66
2023/01/16 09:03:07;;;;;;;5.03;1.20;;;5.50;99.90;;;;;;5032378;28;20207;-66
2023/01/16 09:05:32;;;;;;;2.03;1.23;;;5.70;99.90;;;;;;5032509;28;20492;-66
2023/01/16 09:07:58;;;;;;;1.30;1.20;;;6.50;99.90;;;;;;5032164;28;20218;-67
2023/01/16 09:10:24;;;;;;;2.23;1.27;;;6.60;99.90;;;;;;5030774;28;20281;-67
2023/01/16 09:15:34;;;;;;;6.13;1.67;;;6.30;99.90;;;;;;5031849;28;20416;-66
2023/01/16 09:18:00;;;;;;;1.70;1.23;;;6.10;99.90;;;;;;5031935;28;20498;-66
2023/01/16 09:20:26;;;;;;;2.60;1.40;;;6.20;99.90;;;;;;5031569;28;20173;-66
2023/01/16 09:23:03;;;;;;;3.27;1.30;;;6.10;99.90;;;;;;5031612;28;20207;-66
2023/01/16 09:25:30;;;;;;;2.67;1.60;;;5.80;99.90;;;;;;5030247;28;20770;-66
2023/01/16 09:27:55;;;;;;;3.70;1.80;;;5.70;99.90;;;;;;5031075;28;20434;-66
2023/01/16 09:30:21;;;;;;;3.20;1.80;;;5.40;99.90;;;;;;5031509;28;20458;-66
2023/01/16 09:32:47;;;;;;;1.83;1.30;;;5.30;99.90;;;;;;5031512;28;20246;-66
2023/01/16 09:35:13;;;;;;;4.67;2.07;;;5.30;99.90;;;;;;5031410;28;20172;-66
2023/01/16 09:37:40;;;;;;;4.50;1.40;;;5.20;99.90;;;;;;5014313;28;20509;-66
2023/01/16 09:40:11;;;;;;;1.87;1.40;;;5.10;99.90;;;;;;5031483;28;20419;-66
2023/01/16 09:45:59;;;;;;;2.83;1.77;;;5.10;99.90;;;;;;4989019;28;20413;-66
2023/01/16 09:48:38;;;;;;;2.47;1.40;;;5.10;99.90;;;;;;5031663;28;20398;-67
2023/01/16 09:51:16;;;;;;;1.73;1.50;;;5.10;99.90;;;;;;5030851;28;20444;-66
2023/01/16 09:59:37;;;;;;;4.60;1.40;;;5.10;99.90;;;;;;5027996;28;20480;-66
2023/01/16 10:02:08;;;;;;;2.43;1.60;;;5.20;99.90;;;;;;5024969;28;20414;-67
2023/01/16 10:04:36;;;;;;;1.77;1.10;;;5.20;99.90;;;;;;5031713;28;20538;-65
2023/01/16 10:07:30;;;;;;;5.87;1.80;;;5.20;99.90;;;;;;5031462;28;20446;-66
2023/01/16 10:10:23;;;;;;;5.70;1.77;;;5.20;99.90;;;;;;5023897;28;20395;-67
2023/01/16 10:13:18;;;;;;;6.20;1.17;;;5.30;99.90;;;;;;5031622;28;20430;-67
2023/01/16 10:16:04;;;;;;;1.27;1.10;;;5.30;99.90;;;;;;5002712;28;20442;-66
2023/01/16 10:18:52;;;;;;;1.57;1.00;;;5.40;99.90;;;;;;5027043;28;20430;-67
2023/01/16 10:21:36;;;;;;;1.57;1.40;;;5.40;99.90;;;;;;5031405;28;20524;-67
2023/01/16 10:24:11;;;;;;;2.87;1.27;;;5.50;99.90;;;;;;5024325;28;20462;-67
2023/01/16 10:26:43;;;;;;;2.10;1.63;;;5.50;99.90;;;;;;5031324;28;20899;-67
2023/01/16 10:29:20;;;;;;;1.33;1.23;;;5.60;99.90;;;;;;5031365;28;20908;-67
2023/01/16 10:32:31;;;;;;;4.00;1.30;;;5.70;99.90;;;;;;5031404;28;20418;-67
2023/01/16 10:35:06;;;;;;;2.77;1.53;;;5.70;99.90;;;;;;4949331;28;20433;-67
2023/01/16 10:37:35;;;;;;;7.40;1.60;;;5.80;99.90;;;;;;5022595;28;20437;-67
2023/01/16 10:40:27;;;;;;;1.27;1.03;;;5.80;99.90;;;;;;5031234;28;20407;-67
2023/01/16 10:49:25;;;;;;;1.90;1.07;;;6.00;99.90;;;;;;5031470;28;20413;-66
2023/01/16 10:51:31;;;;;;;1.23;1.10;;;6.10;99.90;;;;;;5025062;28;20511;-66
2023/01/16 10:53:58;;;;;;;1.37;1.27;;;6.10;99.90;;;;;;5031189;28;20520;-66
2023/01/16 10:56:24;;;;;;;1.87;1.17;;;6.20;99.90;;;;;;5031074;28;20180;-65
2023/01/16 10:58:51;;;;;;;2.40;1.43;;;6.20;99.90;;;;;;5031021;28;20421;-66
2023/01/16 11:01:19;;;;;;;1.63;1.03;;;6.30;99.90;;;;;;5031072;28;20265;-66
2023/01/16 11:03:50;;;;;;;1.93;1.00;;;6.30;99.90;;;;;;5031198;28;20454;-65
2023/01/16 11:06:26;;;;;;;1.93;1.30;;;6.30;99.90;;;;;;5031037;28;20411;-67
2023/01/16 11:09:02;;;;;;;1.30;0.90;;;6.30;99.90;;;;;;5030127;28;20422;-66
2023/01/16 11:20:27;;;;;;;3.30;1.60;;;6.60;99.90;;;;;;5032996;28;20468;-65
2023/01/16 11:22:59;;;;;;;3.53;1.33;;;6.60;99.90;;;;;;5016926;28;20472;-66
2023/01/16 11:25:27;;;;;;;2.57;2.33;;;6.70;99.90;;;;;;5033474;28;20799;-66
2023/01/16 11:27:55;;;;;;;1.10;1.00;;;6.70;99.90;;;;;;5034734;28;20505;-66
2023/01/16 11:30:28;;;;;;;4.00;1.47;;;6.70;99.90;;;;;;5034530;28;20477;-67
2023/01/16 11:32:56;;;;;;;1.23;1.10;;;6.70;99.90;;;;;;5033603;28;20426;-67
2023/01/16 11:35:31;;;;;;;1.17;1.07;;;6.80;99.90;;;;;;5034654;28;20809;-65
2023/01/16 11:37:58;;;;;;;2.37;1.33;;;6.80;99.90;;;;;;5034156;28;20448;-65
2023/01/16 11:40:26;;;;;;;1.53;0.90;;;6.90;99.90;;;;;;5027070;28;20773;-65
2023/01/16 11:46:04;;;;;;;8.23;1.67;;;7.00;99.90;;;;;;5036200;28;20439;-66
2023/01/16 11:48:40;;;;;;;3.23;1.37;;;7.10;99.90;;;;;;5030890;28;20395;-66
2023/01/16 11:51:11;;;;;;;2.97;1.30;;;7.20;99.90;;;;;;5035456;28;20434;-66
2023/01/16 11:53:37;;;;;;;3.30;1.47;;;7.20;99.90;;;;;;5029727;28;20879;-66
2023/01/16 11:56:16;;;;;;;2.60;1.33;;;7.20;99.90;;;;;;5009765;28;20525;-66
2023/01/16 11:59:18;;;;;;;4.73;1.53;;;7.20;99.90;;;;;;5039127;28;20640;-66
2023/01/16 12:02:20;;;;;;;6.87;1.67;;;7.20;99.90;;;;;;5001462;28;20961;-67
2023/01/16 12:08:22;;;;;;;1.40;1.10;;;7.30;99.90;;;;;;5026902;28;20821;-68
2023/01/16 12:11:01;;;;;;;2.70;1.37;;;7.30;99.90;;;;;;5019667;28;20441;-68
2023/01/16 12:16:37;;;;;;;1.70;1.07;;;7.30;99.90;;;;;;5031462;28;20816;-67
2023/01/16 12:19:15;;;;;;;1.63;1.20;;;7.40;99.90;;;;;;5031859;28;20410;-67
2023/01/16 12:21:56;;;;;;;2.20;1.20;;;7.40;99.90;;;;;;5033508;28;20475;-67
2023/01/16 12:24:30;;;;;;;1.53;1.20;;;7.40;99.90;;;;;;5029258;28;20462;-67
2023/01/16 12:27:06;;;;;;;2.80;0.93;;;7.40;99.90;;;;;;5027244;28;20406;-67
2023/01/16 12:29:53;;;;;;;1.73;1.43;;;7.40;99.90;;;;;;5029228;28;20952;-67
2023/01/16 12:32:37;;;;;;;1.30;1.20;;;7.40;99.90;;;;;;5015325;28;20787;-67
2023/01/16 12:35:10;;;;;;;1.13;0.90;;;7.40;99.90;;;;;;5026897;28;20408;-67
2023/01/16 12:37:47;;;;;;;5.50;1.67;;;7.50;99.90;;;;;;5033177;28;20414;-67
2023/01/16 12:40:25;;;;;;;2.00;1.13;;;7.50;99.90;;;;;;5033541;28;20895;-67
2023/01/16 12:43:20;;;;;;;1.73;1.10;;;7.60;99.90;;;;;;5033163;28;20429;-67
2023/01/16 12:45:52;;;;;;;3.10;1.87;;;7.50;99.90;;;;;;5024447;28;20458;-67
2023/01/16 12:48:58;;;;;;;1.40;1.20;;;7.60;99.90;;;;;;5025524;28;20454;-66
2023/01/16 12:51:24;;;;;;;2.83;1.10;;;7.60;99.90;;;;;;5033807;28;20509;-66
2023/01/16 12:54:13;;;;;;;7.03;1.37;;;7.60;99.90;;;;;;5027212;28;20847;-66
2023/01/16 12:56:59;;;;;;;3.10;1.40;;;7.70;99.90;;;;;;5022186;28;20730;-66
2023/01/16 12:59:38;;;;;;;2.23;2.03;;;7.70;99.90;;;;;;5023718;28;20472;-66
2023/01/16 13:02:43;;;;;;;2.10;1.33;;;7.70;99.90;;;;;;5025181;23;20487;-72
2023/01/16 13:05:33;;;;;;;1.43;1.33;;;7.80;99.90;;;;;;4974022;28;20460;-74
2023/01/16 13:08:13;;;;;;;2.80;1.40;;;7.70;99.90;;;;;;5014243;28;20416;-73
2023/01/16 13:13:31;;;;;;;2.20;1.70;;;7.60;99.90;;;;;;5011195;28;20574;-72
2023/01/16 13:16:18;;;;;;;2.50;1.50;;;7.60;99.90;;;;;;5010669;28;20746;-73
2023/01/16 13:19:09;;;;;;;1.17;1.00;;;7.60;99.90;;;;;;5010417;28;20898;-72
2023/01/16 13:21:55;;;;;;;1.83;1.60;;;7.70;99.90;;;;;;5008459;28;20800;-72
2023/01/16 13:24:46;;;;;;;2.23;1.17;;;7.60;99.90;;;;;;5011068;28;20451;-72
2023/01/16 13:27:21;;;;;;;0.90;0.80;;;7.60;99.90;;;;;;5005756;28;20479;-73
2023/01/16 13:30:03;;;;;;;1.30;1.10;;;7.60;99.90;;;;;;5010822;28;20464;-72
2023/01/16 13:32:33;;;;;;;4.33;1.33;;;7.60;99.90;;;;;;5011206;28;20518;-72
2023/01/16 13:35:25;;;;;;;1.50;1.30;;;7.60;99.90;;;;;;5010929;28;20884;-74
2023/01/16 13:38:21;;;;;;;10.47;1.70;;;7.60;99.90;;;;;;4993671;28;20905;-72
2023/01/16 13:40:58;;;;;;;2.30;1.13;;;7.50;99.90;;;;;;5009788;28;20455;-71
2023/01/16 13:46:28;;;;;;;1.63;1.27;;;7.50;99.90;;;;;;5006131;28;20456;-73
2023/01/16 13:48:56;;;;;;;1.60;1.10;;;7.50;99.90;;;;;;4997252;28;20435;-72
2023/01/16 13:51:23;;;;;;;1.73;1.20;;;7.50;99.90;;;;;;4989180;28;20960;-73
2023/01/16 13:53:58;;;;;;;2.63;1.13;;;7.40;99.90;;;;;;5010840;28;20506;-73
2023/01/16 13:56:26;;;;;;;1.60;1.50;;;7.40;99.90;;;;;;5004986;28;20518;-72
2023/01/16 13:59:06;;;;;;;2.17;1.50;;;7.40;99.90;;;;;;4980041;28;20421;-73
2023/01/16 14:01:56;;;;;;;2.03;0.93;;;7.40;99.90;;;;;;5010785;28;20457;-73
2023/01/16 14:04:23;;;;;;;2.47;1.23;;;7.40;99.90;;;;;;5008110;28;20971;-72
2023/01/16 14:10:15;;;;;;;1.60;0.83;;;7.30;99.90;;;;;;5010419;28;20426;-73
2023/01/16 14:13:00;;;;;;;2.60;1.30;;;7.30;99.90;;;;;;5010458;28;20410;-71
2023/01/16 14:19:23;;;;;;;1.97;1.00;;;7.20;99.90;;;;;;4972535;28;20409;-72
2023/01/16 14:24:45;;;;;;;2.70;1.40;;;7.20;99.90;;;;;;4963004;28;20515;-72
2023/01/16 14:27:23;;;;;;;3.50;1.37;;;7.10;99.90;;;;;;5010227;28;20430;-73
2023/01/16 14:29:51;;;;;;;1.20;1.10;;;7.00;99.90;;;;;;5009258;28;20775;-72
2023/01/16 14:32:19;;;;;;;1.00;0.90;;;7.00;99.90;;;;;;5010171;28;20427;-72
2023/01/16 14:34:55;;;;;;;1.37;1.27;;;6.90;99.90;;;;;;5010202;28;20499;-72